Time;durP1;ratioP1;P1;durP2;ratioP2;P2;SDS_P1;SDS_P2;PMS_P1;PMS_P2;Temp;Humidity;BMP_temperature;BMP_pressure;BME280_temperature;BME280_humidity;BME280_pressure;Samples;Min_cycle;Max_cycle;Signal;HPM_P1;HPM_P2
2021/11/22 00:02:26;;;;;;;67.20;53.42;;;;;;;14.93;32.62;94201.94;5057255;28;20052;-53
2021/11/22 00:04:53;;;;;;;69.00;55.20;;;;;;;15.27;31.45;94198.34;5068258;28;20057;-56
2021/11/22 00:07:20;;;;;;;67.03;52.55;;;;;;;14.88;32.62;94204.75;5050612;28;20055;-51
2021/11/22 00:09:47;;;;;;;67.78;53.97;;;;;;;15.26;31.98;94205.47;5057793;28;20049;-53
2021/11/22 00:12:14;;;;;;;65.32;53.33;;;;;;;15.10;32.57;94207.13;5057743;28;20518;-52
2021/11/22 00:14:41;;;;;;;62.10;49.35;;;;;;;14.85;31.71;94213.28;5065932;28;20048;-54
2021/11/22 00:17:09;;;;;;;58.65;47.20;;;;;;;15.28;31.93;94205.94;5077556;28;20048;-51
2021/11/22 00:19:36;;;;;;;63.58;49.05;;;;;;;15.72;32.52;94219.63;5077625;28;20052;-53
2021/11/22 00:22:03;;;;;;;56.10;46.40;;;;;;;14.98;31.71;94210.44;5076986;28;20048;-51
2021/11/22 00:24:31;;;;;;;60.30;47.75;;;;;;;15.30;32.94;94203.75;5077088;28;20056;-52
2021/11/22 00:26:58;;;;;;;57.28;45.03;;;;;;;15.40;31.50;94208.66;5076730;28;20041;-53
2021/11/22 00:29:25;;;;;;;44.63;35.90;;;;;;;16.26;30.24;94206.47;5049981;28;20083;-52
2021/11/22 00:32:22;;;;;;;49.60;40.03;;;;;;;14.82;32.79;94214.66;5038216;28;20052;-53
2021/11/22 00:35:10;;;;;;;51.28;40.60;;;;;;;15.21;32.83;94208.31;5032653;28;20044;-54
2021/11/22 00:37:41;;;;;;;51.40;41.55;;;;;;;14.81;31.89;94221.78;5047427;28;20049;-55
2021/11/22 00:40:12;;;;;;;42.10;35.90;;;;;;;16.64;30.44;94211.50;5060507;28;20037;-51
2021/11/22 00:42:42;;;;;;;42.40;36.28;;;;;;;15.55;32.32;94209.16;5048909;28;20041;-51
2021/11/22 00:45:09;;;;;;;45.58;36.78;;;;;;;14.74;33.88;94213.63;5058808;28;20363;-51
2021/11/22 00:47:37;;;;;;;47.67;36.58;;;;;;;15.22;31.63;94217.75;5067714;28;20052;-51
2021/11/22 00:50:07;;;;;;;44.08;35.65;;;;;;;14.89;33.60;94208.94;5066235;28;20052;-50
2021/11/22 00:52:34;;;;;;;39.85;33.28;;;;;;;15.93;31.98;94209.88;5066314;28;20048;-52
2021/11/22 00:55:02;;;;;;;38.95;33.42;;;;;;;15.98;31.29;94217.56;5068595;28;20052;-52
2021/11/22 00:57:30;;;;;;;36.53;31.17;;;;;;;16.93;29.73;94211.38;5073194;28;20052;-55
2021/11/22 00:59:58;;;;;;;39.33;32.85;;;;;;;16.17;30.42;94211.06;5057257;28;20056;-54
2021/11/22 01:02:27;;;;;;;36.00;29.48;;;;;;;16.64;30.64;94201.72;5056419;28;20056;-53
2021/11/22 01:04:54;;;;;;;37.90;31.90;;;;;;;15.61;30.43;94208.72;5065886;28;20059;-52
2021/11/22 01:07:21;;;;;;;39.03;31.88;;;;;;;15.69;31.75;94209.75;5057621;28;20363;-53
2021/11/22 01:09:48;;;;;;;37.60;32.35;;;;;;;15.93;31.49;94209.88;5056967;28;20447;-52
2021/11/22 01:12:15;;;;;;;35.78;30.85;;;;;;;15.53;32.00;94211.34;5056862;28;20055;-54
2021/11/22 01:14:43;;;;;;;36.47;31.52;;;;;;;15.15;31.76;94201.69;5058371;28;20041;-53
2021/11/22 01:17:10;;;;;;;40.83;33.47;;;;;;;14.40;32.97;94213.69;5069137;28;20325;-52
2021/11/22 01:19:37;;;;;;;39.83;32.88;;;;;;;15.18;32.03;94201.03;5056482;28;20041;-52
2021/11/22 01:22:04;;;;;;;38.25;32.58;;;;;;;15.28;31.71;94210.44;5065044;28;20040;-56
2021/11/22 01:24:32;;;;;;;38.38;33.05;;;;;;;14.77;32.11;94207.72;5075967;28;20139;-53
2021/11/22 01:26:59;;;;;;;40.25;31.98;;;;;;;15.09;31.85;94192.41;5075332;28;20059;-53
2021/11/22 01:29:26;;;;;;;40.47;34.00;;;;;;;15.25;31.91;94206.56;5076369;28;20078;-52
2021/11/22 01:31:53;;;;;;;46.45;34.25;;;;;;;14.91;32.67;94214.66;5075414;28;20059;-52
2021/11/22 01:34:20;;;;;;;41.60;35.10;;;;;;;14.57;33.65;94215.53;5075174;28;20056;-52
2021/11/22 01:36:47;;;;;;;42.25;33.58;;;;;;;15.44;32.07;94211.44;5075819;28;20052;-51
2021/11/22 01:39:14;;;;;;;45.40;35.03;;;;;;;15.33;32.33;94203.09;5075179;28;20379;-52
2021/11/22 01:41:41;;;;;;;38.30;32.55;;;;;;;15.03;31.72;94217.38;5075813;28;20048;-51
2021/11/22 01:44:08;;;;;;;36.80;32.05;;;;;;;15.16;31.21;94218.25;5075850;28;20383;-52
2021/11/22 01:46:36;;;;;;;41.97;33.47;;;;;;;14.67;31.97;94208.06;5075620;28;20044;-54
2021/11/22 01:49:03;;;;;;;40.65;33.97;;;;;;;14.46;32.48;94207.97;5075975;28;20048;-52
2021/11/22 01:51:31;;;;;;;40.97;34.17;;;;;;;14.05;33.23;94213.75;5071882;28;20056;-52
2021/11/22 01:53:59;;;;;;;42.58;34.15;;;;;;;15.58;30.28;94205.91;5074664;28;20052;-54
2021/11/22 01:56:27;;;;;;;44.45;34.40;;;;;;;15.53;31.56;94206.09;5074989;28;20471;-54
2021/11/22 01:58:54;;;;;;;45.75;35.00;;;;;;;15.50;31.96;94206.72;5075736;28;20462;-52
2021/11/22 02:01:21;;;;;;;46.58;35.65;;;;;;;15.03;32.15;94204.22;5075618;28;20036;-55
2021/11/22 02:03:49;;;;;;;45.83;35.63;;;;;;;15.60;31.39;94212.41;5075777;28;20044;-52
2021/11/22 02:06:16;;;;;;;45.63;37.30;;;;;;;15.15;32.66;94206.94;5074855;28;20056;-52
2021/11/22 02:08:45;;;;;;;44.10;35.65;;;;;;;15.01;32.47;94206.38;5075591;28;20052;-53
2021/11/22 02:11:13;;;;;;;40.00;34.25;;;;;;;16.48;30.40;94198.19;5060656;28;20364;-53
2021/11/22 02:13:41;;;;;;;44.70;35.58;;;;;;;16.86;29.35;94197.16;5055475;28;20055;-53
2021/11/22 02:16:08;;;;;;;41.95;36.03;;;;;;;16.22;29.79;94195.03;5071548;28;20048;-54
2021/11/22 02:18:35;;;;;;;41.78;35.47;;;;;;;15.51;31.30;94200.38;5071717;28;20060;-55
2021/11/22 02:21:03;;;;;;;42.33;36.03;;;;;;;14.70;31.87;94196.91;5055411;28;21311;-53
2021/11/22 02:23:30;;;;;;;43.83;36.70;;;;;;;14.20;33.74;94189.59;5068099;28;20060;-53
2021/11/22 02:25:57;;;;;;;46.63;36.75;;;;;;;14.65;33.08;94183.94;5070541;28;20059;-54
2021/11/22 02:28:24;;;;;;;40.25;33.80;;;;;;;16.46;30.68;94187.19;5074063;28;20056;-54
2021/11/22 02:30:51;;;;;;;42.60;34.53;;;;;;;14.59;33.67;94182.59;5075197;28;20355;-53
2021/11/22 02:33:21;;;;;;;39.72;33.28;;;;;;;15.75;31.64;94176.81;5075061;28;20059;-56
2021/11/22 02:35:51;;;;;;;43.05;33.75;;;;;;;15.13;31.50;94177.53;5074539;28;20443;-55
2021/11/22 02:38:20;;;;;;;43.22;34.72;;;;;;;14.06;32.72;94194.28;5075238;28;20052;-53
2021/11/22 02:40:47;;;;;;;42.17;34.55;;;;;;;14.87;31.68;94198.72;5075022;28;20044;-54
2021/11/22 02:43:14;;;;;;;41.90;33.80;;;;;;;14.13;32.69;94189.31;5068344;28;20041;-59
2021/11/22 02:45:42;;;;;;;39.85;33.40;;;;;;;14.76;31.94;94192.25;5066523;28;20045;-54
2021/11/22 02:48:09;;;;;;;43.83;35.10;;;;;;;14.60;32.10;94192.00;5074624;28;20055;-52
2021/11/22 02:50:36;;;;;;;45.08;35.45;;;;;;;14.41;31.34;94194.19;5074854;28;20053;-53
2021/11/22 02:53:03;;;;;;;43.67;35.63;;;;;;;14.92;31.49;94195.13;5057447;28;20085;-52
2021/11/22 02:55:31;;;;;;;39.55;32.65;;;;;;;14.29;32.06;94196.69;5064218;28;20059;-51
2021/11/22 02:57:58;;;;;;;41.95;34.08;;;;;;;14.82;31.75;94196.25;5074502;28;20095;-51
2021/11/22 03:00:30;;;;;;;41.47;34.97;;;;;;;13.88;32.76;94198.00;5074701;28;20044;-52
2021/11/22 03:02:57;;;;;;;39.50;32.47;;;;;;;14.54;31.58;94193.25;5073993;28;20363;-52
2021/11/22 03:05:24;;;;;;;41.42;32.72;;;;;;;14.46;31.30;94183.53;5074032;28;20048;-53
2021/11/22 03:07:54;;;;;;;40.85;33.92;;;;;;;15.45;30.88;94184.00;5074390;28;20055;-52
2021/11/22 03:10:23;;;;;;;42.63;35.30;;;;;;;14.96;30.62;94182.88;5056705;28;20051;-54
2021/11/22 03:12:50;;;;;;;44.17;35.97;;;;;;;13.85;33.05;94188.13;5050942;28;20466;-52
2021/11/22 03:15:19;;;;;;;45.03;35.53;;;;;;;14.23;32.42;94190.06;5061716;28;20052;-53
2021/11/22 03:17:47;;;;;;;42.97;33.90;;;;;;;13.61;33.67;94185.94;5074243;28;20064;-50
2021/11/22 03:20:16;;;;;;;44.38;35.72;;;;;;;14.43;32.33;94181.53;5058229;28;20478;-51
2021/11/22 03:22:45;;;;;;;46.42;36.30;;;;;;;13.89;33.68;94189.81;5068448;28;20041;-53
2021/11/22 03:25:13;;;;;;;43.83;35.88;;;;;;;13.88;32.95;94192.75;5073937;28;20458;-51
2021/11/22 03:27:42;;;;;;;43.10;35.72;;;;;;;14.00;33.41;94203.38;5073900;28;20060;-53
2021/11/22 03:30:10;;;;;;;44.90;35.83;;;;;;;14.19;32.47;94198.56;5074148;28;20431;-52
2021/11/22 03:32:37;;;;;;;43.75;35.25;;;;;;;14.36;32.18;94212.78;5074244;28;20463;-55
2021/11/22 03:35:05;;;;;;;43.47;35.13;;;;;;;13.68;33.78;94204.63;5074104;28;20072;-52
2021/11/22 03:37:33;;;;;;;45.47;35.45;;;;;;;14.11;32.99;94207.25;5073867;28;20048;-53
2021/11/22 03:40:00;;;;;;;41.85;35.15;;;;;;;13.78;33.57;94203.53;5074113;28;20052;-54
2021/11/22 03:42:36;;;;;;;45.63;36.47;;;;;;;14.05;33.09;94205.06;5074199;28;20055;-51
2021/11/22 03:45:07;;;;;;;46.25;36.50;;;;;;;14.28;32.38;94216.19;5069268;28;20049;-53
2021/11/22 03:47:34;;;;;;;45.75;36.13;;;;;;;13.49;33.66;94207.56;5074030;28;20087;-52
2021/11/22 03:50:01;;;;;;;46.22;35.30;;;;;;;13.10;33.25;94207.63;5053185;28;20052;-53
2021/11/22 03:52:28;;;;;;;47.40;39.50;;;;;;;13.41;33.83;94210.94;5065837;28;20052;-52
2021/11/22 03:54:55;;;;;;;51.47;37.63;;;;;;;13.39;33.83;94207.09;5072469;28;20056;-50
2021/11/22 03:57:26;;;;;;;48.88;38.17;;;;;;;13.64;34.12;94213.44;5073548;28;20061;-50
2021/11/22 03:59:55;;;;;;;47.25;38.53;;;;;;;13.35;34.31;94211.41;5074042;28;20048;-51
2021/11/22 04:02:23;;;;;;;50.33;38.63;;;;;;;13.88;33.40;94208.50;5074029;28;20360;-51
2021/11/22 04:04:50;;;;;;;49.42;37.45;;;;;;;13.92;33.10;94214.69;5073779;28;20052;-51
2021/11/22 04:07:17;;;;;;;50.45;40.72;;;;;;;14.27;32.52;94219.91;5073498;28;20041;-51
2021/11/22 04:09:44;;;;;;;51.33;38.75;;;;;;;14.59;32.18;94227.31;5065905;28;20052;-53
2021/11/22 04:12:11;;;;;;;50.92;38.47;;;;;;;13.50;33.67;94219.59;5053729;28;20407;-51
2021/11/22 04:14:38;;;;;;;50.17;39.38;;;;;;;14.22;32.63;94227.94;5054302;28;20049;-52
2021/11/22 04:17:06;;;;;;;54.72;40.67;;;;;;;14.16;32.51;94225.50;5073556;28;20048;-53
2021/11/22 04:19:33;;;;;;;47.92;38.80;;;;;;;14.57;31.32;94213.66;5071457;28;20064;-55
2021/11/22 04:22:00;;;;;;;49.72;38.72;;;;;;;15.36;30.62;94215.66;5062051;28;20052;-53
2021/11/22 04:24:27;;;;;;;48.33;39.40;;;;;;;13.86;33.24;94223.81;5062751;28;20040;-51
2021/11/22 04:26:54;;;;;;;47.85;39.42;;;;;;;14.08;32.57;94228.91;5070663;28;20052;-52
2021/11/22 04:29:22;;;;;;;46.67;38.22;;;;;;;13.73;33.40;94228.13;5073942;28;20045;-55
2021/11/22 04:31:49;;;;;;;50.30;39.58;;;;;;;13.95;33.21;94219.31;5073909;28;20106;-52
2021/11/22 04:34:17;;;;;;;50.58;41.17;;;;;;;14.44;32.55;94231.19;5073597;28;20052;-52
2021/11/22 04:36:44;;;;;;;58.58;40.95;;;;;;;14.10;33.25;94228.59;5072494;28;20067;-53
2021/11/22 04:39:11;;;;;;;52.33;41.90;;;;;;;14.33;32.81;94229.19;5073635;28;20444;-52
2021/11/22 04:41:38;;;;;;;52.33;42.28;;;;;;;14.40;32.90;94234.75;5074852;28;20050;-53
2021/11/22 04:44:05;;;;;;;49.42;39.47;;;;;;;14.63;32.19;94222.94;5077217;28;20044;-52
2021/11/22 04:46:33;;;;;;;51.17;40.28;;;;;;;14.13;33.36;94225.34;5075396;28;20040;-52
2021/11/22 04:49:00;;;;;;;51.33;40.55;;;;;;;14.23;33.05;94246.03;5077080;28;20508;-53
2021/11/22 04:51:27;;;;;;;53.20;41.63;;;;;;;14.51;32.89;94241.22;5075935;28;20052;-53
2021/11/22 04:53:54;;;;;;;56.65;42.15;;;;;;;14.65;32.74;94236.56;5076884;28;20060;-53
2021/11/22 04:58:59;;;;;;;56.40;43.88;;;;;;;15.23;31.39;94240.34;5017070;28;20068;-53
2021/11/22 05:01:26;;;;;;;49.75;40.75;;;;;;;15.02;31.79;94244.78;5016225;28;20048;-55
2021/11/22 05:03:54;;;;;;;52.72;43.97;;;;;;;15.04;32.19;94247.88;5017345;28;20045;-55
2021/11/22 05:06:21;;;;;;;59.30;47.78;;;;;;;16.09;30.56;94249.56;5021181;28;20056;-54
2021/11/22 05:08:48;;;;;;;71.53;60.42;;;;;;;16.12;30.83;94258.69;5024967;28;20057;-57
2021/11/22 05:11:15;;;;;;;62.33;47.83;;;;;;;16.85;29.47;94249.19;5017355;28;20049;-52
2021/11/22 05:13:57;;;;;;;55.80;46.92;;;;;;;15.50;31.56;94249.66;5017226;28;20057;-52
2021/11/22 05:16:24;;;;;;;55.50;46.92;;;;;;;15.59;31.52;94247.75;5021232;28;20045;-53
2021/11/22 05:19:06;;;;;;;56.30;47.63;;;;;;;14.79;33.08;94250.28;5027723;28;20053;-52
2021/11/22 05:21:33;;;;;;;56.75;44.75;;;;;;;15.31;32.37;94250.06;5016931;28;20046;-52
2021/11/22 05:24:01;;;;;;;55.88;46.83;;;;;;;14.13;34.13;94244.50;5016941;28;20050;-51
2021/11/22 05:29:23;;;;;;;56.92;46.03;;;;;;;14.13;34.23;94249.78;4960323;28;20073;-41
2021/11/22 05:31:50;;;;;;;62.13;49.40;;;;;;;14.13;33.97;94247.16;4960734;28;20051;-58
2021/11/22 05:34:18;;;;;;;63.85;47.60;;;;;;;16.18;30.93;94246.88;4962034;28;20062;-52
2021/11/22 05:36:46;;;;;;;59.97;48.42;;;;;;;15.40;31.87;94256.06;4977139;28;20053;-51
2021/11/22 05:39:13;;;;;;;60.05;46.42;;;;;;;16.64;29.95;94256.34;4983723;28;20066;-61
2021/11/22 05:41:40;;;;;;;60.47;49.28;;;;;;;15.82;30.92;94258.00;4996961;28;20057;-53
2021/11/22 05:44:07;;;;;;;60.25;48.30;;;;;;;14.96;32.83;94267.09;4997234;28;20050;-56
2021/11/22 05:46:34;;;;;;;63.70;48.38;;;;;;;14.65;33.56;94262.88;4980213;28;20046;-57
2021/11/22 05:49:02;;;;;;;61.72;48.10;;;;;;;14.64;38.33;94261.31;4975553;28;20062;-48
2021/11/22 05:51:29;;;;;;;70.20;50.75;;;;;;;15.17;33.95;94275.09;4977452;28;20058;-58
2021/11/22 05:53:58;;;;;;;64.00;48.67;;;;;;;15.02;35.57;94271.09;4973809;28;20050;-66
2021/11/22 05:56:25;;;;;;;56.40;47.33;;;;;;;16.03;31.93;94267.47;4971887;28;20047;-51
2021/11/22 05:58:52;;;;;;;60.28;45.95;;;;;;;16.37;31.98;94265.63;4972781;28;20050;-58
2021/11/22 06:01:19;;;;;;;57.55;46.10;;;;;;;16.17;33.94;94277.00;4960088;28;20061;-59
2021/11/22 06:03:46;;;;;;;56.53;45.25;;;;;;;16.51;32.28;94281.94;4977089;28;20046;-51
2021/11/22 06:06:13;;;;;;;57.92;45.60;;;;;;;16.21;33.06;94277.88;4977044;28;20057;-50
2021/11/22 06:08:40;;;;;;;55.40;42.83;;;;;;;16.57;32.46;94275.38;4973116;28;20046;-58
2021/11/22 06:11:08;;;;;;;57.42;44.40;;;;;;;16.58;33.24;94282.19;4976920;28;20524;-50
2021/11/22 06:13:35;;;;;;;53.90;43.45;;;;;;;16.71;33.43;94279.63;4976722;28;20347;-50
2021/11/22 06:16:02;;;;;;;71.00;48.70;;;;;;;15.92;33.24;94282.13;4977073;28;20372;-49
2021/11/22 06:18:29;;;;;;;62.90;46.35;;;;;;;15.96;33.34;94277.75;4958031;28;20545;-51
2021/11/22 06:20:56;;;;;;;59.20;43.97;;;;;;;16.11;33.08;94292.22;4976693;28;20046;-47
2021/11/22 06:23:23;;;;;;;59.50;44.70;;;;;;;15.86;33.48;94278.13;4976778;28;20042;-46
2021/11/22 06:25:50;;;;;;;68.22;45.35;;;;;;;15.87;33.93;94286.81;4976651;28;20051;-52
2021/11/22 06:28:19;;;;;;;65.50;47.63;;;;;;;15.43;34.17;94284.41;4961043;28;20071;-48
2021/11/22 06:30:47;;;;;;;62.67;47.45;;;;;;;15.61;34.04;94277.22;4957176;29;20043;-56
2021/11/22 06:33:14;;;;;;;58.03;46.05;;;;;;;16.68;32.11;94281.06;4957270;29;20358;-47
2021/11/22 06:35:42;;;;;;;66.15;48.60;;;;;;;15.62;33.95;94278.00;4957121;29;20067;-58
2021/11/22 06:38:11;;;;;;;62.42;47.97;;;;;;;15.61;34.18;94281.69;4949270;29;20051;-48
2021/11/22 06:40:38;;;;;;;58.65;48.50;;;;;;;15.13;34.71;94287.34;4961716;28;20049;-51
2021/11/22 06:43:05;;;;;;;62.22;47.17;;;;;;;15.89;33.36;94290.69;4976601;28;20043;-50
2021/11/22 06:45:32;;;;;;;62.42;48.80;;;;;;;16.43;31.92;94285.44;4976221;28;20124;-56
2021/11/22 06:48:00;;;;;;;67.55;51.28;;;;;;;15.45;33.61;94293.84;4976147;28;20393;-53
2021/11/22 06:50:27;;;;;;;72.53;54.95;;;;;;;15.76;32.47;94293.56;4975771;28;20062;-51
2021/11/22 06:52:54;;;;;;;70.18;55.40;;;;;;;16.21;32.45;94286.56;4976022;28;20054;-56
2021/11/22 06:55:21;;;;;;;71.28;56.95;;;;;;;16.29;32.29;94293.63;4976301;28;20050;-52
2021/11/22 06:57:49;;;;;;;72.32;59.90;;;;;;;16.34;32.42;94305.84;4964979;28;20058;-46
2021/11/22 07:00:18;;;;;;;80.50;65.53;;;;;;;16.36;31.62;94293.09;4956297;28;20438;-50
2021/11/22 07:02:50;;;;;;;79.35;65.70;;;;;;;16.81;31.86;94295.81;4957857;28;20473;-48
2021/11/22 07:05:19;;;;;;;89.25;67.53;;;;;;;16.54;31.65;94299.78;4975635;28;20046;-55
2021/11/22 07:07:47;;;;;;;85.43;68.10;;;;;;;16.56;31.19;94302.09;4975088;28;20061;-51
2021/11/22 07:10:14;;;;;;;89.00;71.25;;;;;;;16.31;32.34;94303.84;4975488;28;20390;-58
2021/11/22 07:12:41;;;;;;;87.70;70.22;;;;;;;16.20;31.96;94302.72;4975848;28;20053;-54
2021/11/22 07:15:09;;;;;;;91.50;68.38;;;;;;;16.20;32.36;94300.06;4958842;28;20042;-48
2021/11/22 07:17:36;;;;;;;86.57;70.22;;;;;;;16.24;32.37;94308.88;4975780;28;20058;-49
2021/11/22 07:20:05;;;;;;;94.68;73.28;;;;;;;16.47;31.73;94302.16;4975372;28;20357;-53
2021/11/22 07:22:32;;;;;;;91.32;71.40;;;;;;;17.30;30.22;94300.41;4975806;28;20043;-49
2021/11/22 07:24:59;;;;;;;89.47;74.20;;;;;;;17.26;31.00;94311.63;4975678;28;20047;-50
2021/11/22 07:27:26;;;;;;;90.28;70.13;;;;;;;17.78;29.94;94299.66;4974893;28;20052;-60
2021/11/22 07:29:58;;;;;;;74.00;61.05;;;;;;;18.15;28.88;94297.72;4958137;28;20057;-57
2021/11/22 07:32:26;;;;;;;75.05;57.72;;;;;;;18.33;29.14;94298.97;4956599;29;20050;-60
2021/11/22 07:34:57;;;;;;;85.88;67.47;;;;;;;18.07;29.54;94295.97;4956546;29;20062;-55
2021/11/22 07:37:25;;;;;;;80.15;64.55;;;;;;;17.92;29.51;94294.00;4956127;29;20063;-51
2021/11/22 07:39:53;;;;;;;80.32;63.17;;;;;;;18.23;29.08;94296.81;4966791;28;20050;-65
2021/11/22 07:42:20;;;;;;;68.57;55.75;;;;;;;18.56;28.74;94293.16;4958609;28;20051;-67
2021/11/22 07:44:49;;;;;;;67.97;53.13;;;;;;;18.62;28.59;94289.97;4975348;28;20073;-54
2021/11/22 07:47:16;;;;;;;64.35;53.38;;;;;;;18.91;28.15;94286.16;4975388;28;20053;-49
2021/11/22 07:49:43;;;;;;;68.10;52.90;;;;;;;20.06;26.02;94292.28;4975049;28;20050;-49
2021/11/22 07:52:10;;;;;;;70.82;61.30;;;;;;;19.51;26.50;94286.84;4975556;28;20046;-66
2021/11/22 07:54:37;;;;;;;71.97;58.97;;;;;;;19.35;26.70;94291.41;4975248;28;20050;-66
2021/11/22 07:57:05;;;;;;;73.47;60.28;;;;;;;18.87;27.98;94289.84;4974637;28;20055;-49
2021/11/22 07:59:32;;;;;;;73.45;60.42;;;;;;;18.77;28.61;94285.81;4975033;28;20058;-55
2021/11/22 08:02:00;;;;;;;76.00;59.10;;;;;;;18.87;28.31;94284.53;4974679;28;20083;-54
2021/11/22 08:04:28;;;;;;;81.13;64.95;;;;;;;18.33;28.66;94288.41;4956332;29;20483;-50
2021/11/22 08:07:01;;;;;;;90.28;67.82;;;;;;;19.39;27.75;94289.63;4955916;29;20442;-55
2021/11/22 08:09:31;;;;;;;90.75;73.65;;;;;;;19.06;27.90;94293.38;4962742;28;20469;-52
2021/11/22 08:14:39;;;;;;;80.55;67.43;;;;;;;19.87;26.74;94287.69;4975376;28;20054;-56
2021/11/22 08:17:07;;;;;;;82.50;66.30;;;;;;;20.66;25.35;94282.88;4977595;28;20381;-50
2021/11/22 08:19:34;;;;;;;81.72;65.57;;;;;;;20.29;26.78;94288.56;4979093;28;20050;-48
2021/11/22 08:22:02;;;;;;;75.88;60.47;;;;;;;20.35;26.46;94296.28;4979224;28;20046;-48
2021/11/22 08:24:29;;;;;;;72.18;57.22;;;;;;;20.11;26.46;94302.63;4978319;28;20039;-50
2021/11/22 08:26:56;;;;;;;82.50;62.47;;;;;;;20.05;26.73;94299.47;4974673;28;20057;-50
2021/11/22 08:29:24;;;;;;;69.60;58.15;;;;;;;20.18;26.27;94292.13;4959288;28;20360;-48
2021/11/22 08:31:51;;;;;;;67.72;58.20;;;;;;;20.39;26.61;94291.81;4959902;29;20462;-53
2021/11/22 08:34:18;;;;;;;69.28;52.75;;;;;;;20.53;26.01;94292.09;4959021;28;20047;-47
2021/11/22 08:36:45;;;;;;;63.83;51.15;;;;;;;20.69;25.63;94290.13;4965540;28;20047;-48
2021/11/22 08:39:12;;;;;;;59.72;45.92;;;;;;;20.28;26.07;94292.34;4978373;28;20350;-53
2021/11/22 08:41:39;;;;;;;54.85;46.05;;;;;;;20.05;26.54;94285.44;4978584;28;20047;-52
2021/11/22 08:44:07;;;;;;;53.97;42.75;;;;;;;21.00;25.37;94283.09;4978263;28;20062;-54
2021/11/22 08:46:36;;;;;;;54.15;44.13;;;;;;;20.60;26.11;94276.31;4978274;28;20462;-48
2021/11/22 08:49:04;;;;;;;47.47;40.67;;;;;;;20.39;26.27;94281.19;4978104;28;20061;-63
2021/11/22 08:51:31;;;;;;;34.58;30.33;;;;;;;20.50;26.33;94285.59;4977688;28;20625;-66
2021/11/22 08:53:58;;;;;;;41.97;32.88;;;;;;;19.99;26.65;94279.59;4977660;28;20053;-50
2021/11/22 08:56:26;;;;;;;40.83;33.67;;;;;;;20.31;26.28;94283.72;4978309;28;20047;-47
2021/11/22 08:58:53;;;;;;;47.35;35.95;;;;;;;20.81;26.28;94282.00;4958736;28;20051;-50
2021/11/22 09:01:20;;;;;;;40.13;29.73;;;;;;;20.76;26.07;94284.19;4958309;29;20047;-50
2021/11/22 09:03:47;;;;;;;33.28;27.15;;;;;;;21.33;26.47;94274.53;4970445;28;20054;-56
2021/11/22 09:06:14;;;;;;;29.85;25.15;;;;;;;20.93;26.88;94279.19;4978122;28;20047;-55
2021/11/22 09:08:42;;;;;;;36.30;30.48;;;;;;;21.33;26.15;94275.31;4977996;28;20108;-56
2021/11/22 09:11:09;;;;;;;50.03;30.02;;;;;;;21.17;26.09;94277.31;4978152;28;20465;-57
2021/11/22 09:13:37;;;;;;;35.67;29.08;;;;;;;21.30;25.40;94281.34;4977548;28;20362;-64
2021/11/22 09:16:07;;;;;;;37.45;31.13;;;;;;;21.51;24.57;94276.38;4977972;28;20050;-56
2021/11/22 09:18:38;;;;;;;39.72;33.22;;;;;;;22.17;24.25;94273.50;4977900;28;20054;-55
2021/11/22 09:21:06;;;;;;;35.35;31.08;;;;;;;21.62;24.75;94270.47;4977946;28;20053;-50
2021/11/22 09:23:34;;;;;;;38.33;33.17;;;;;;;21.77;24.07;94267.63;4977371;28;20373;-56
2021/11/22 09:26:01;;;;;;;40.97;34.45;;;;;;;21.70;24.95;94270.19;4976929;28;20051;-58
2021/11/22 09:28:28;;;;;;;41.47;34.45;;;;;;;21.24;25.07;94272.13;4961354;28;20063;-53
2021/11/22 09:30:55;;;;;;;44.47;35.65;;;;;;;21.41;24.69;94276.97;4958353;29;20047;-66
2021/11/22 09:33:22;;;;;;;48.33;35.75;;;;;;;22.56;22.76;94279.28;4957761;28;20481;-67
2021/11/22 09:35:50;;;;;;;47.33;36.85;;;;;;;21.40;24.73;94264.81;4958138;29;20054;-56
2021/11/22 09:38:17;;;;;;;47.08;38.08;;;;;;;21.58;24.58;94264.28;4958196;29;20051;-48
2021/11/22 09:40:44;;;;;;;44.85;37.65;;;;;;;21.87;24.03;94268.91;4958368;29;20457;-52
2021/11/22 09:43:11;;;;;;;47.33;35.88;;;;;;;21.77;24.50;94264.19;4967924;28;20042;-50
2021/11/22 09:45:38;;;;;;;43.55;35.17;;;;;;;21.49;24.83;94261.91;4977545;28;20051;-57
2021/11/22 09:48:05;;;;;;;42.65;35.33;;;;;;;21.50;24.40;94248.25;4977010;28;20051;-58
2021/11/22 09:50:33;;;;;;;44.22;36.60;;;;;;;21.31;25.27;94253.63;4959775;28;20053;-54
2021/11/22 09:53:00;;;;;;;49.85;39.17;;;;;;;21.71;24.28;94253.09;4977194;28;20050;-53
2021/11/22 09:55:29;;;;;;;45.20;37.28;;;;;;;21.51;25.10;94244.47;4977299;28;20804;-63
2021/11/22 09:58:01;;;;;;;47.42;36.58;;;;;;;21.52;25.09;94240.66;4965153;28;20051;-50
2021/11/22 10:00:35;;;;;;;48.47;39.85;;;;;;;22.03;23.69;94239.47;4956580;28;20059;-53
2021/11/22 10:03:05;;;;;;;48.90;40.63;;;;;;;21.30;24.79;94238.81;4957418;28;20481;-51
2021/11/22 10:05:36;;;;;;;50.40;41.05;;;;;;;21.02;25.27;94240.97;4957754;29;20082;-66
2021/11/22 10:08:07;;;;;;;49.85;40.80;;;;;;;21.53;24.53;94242.19;4957692;29;20055;-67
2021/11/22 10:10:39;;;;;;;47.03;39.50;;;;;;;21.72;24.59;94232.59;4957521;28;20355;-52
2021/11/22 10:13:19;;;;;;;45.70;39.22;;;;;;;22.00;23.84;94230.31;4940284;28;20047;-55
2021/11/22 10:15:46;;;;;;;44.47;36.58;;;;;;;23.25;22.30;94224.41;4967337;28;20051;-56
2021/11/22 10:18:40;;;;;;;48.75;37.83;;;;;;;22.23;24.04;94218.81;4976622;28;20050;-51
2021/11/22 10:21:12;;;;;;;47.75;38.92;;;;;;;23.08;22.46;94214.34;4968691;28;20454;-48
2021/11/22 10:23:42;;;;;;;46.08;39.83;;;;;;;22.52;23.37;94215.34;4976481;28;20043;-51
2021/11/22 10:26:11;;;;;;;52.15;40.20;;;;;;;21.91;24.26;94205.88;4976389;28;20500;-52
2021/11/22 10:28:41;;;;;;;49.42;39.22;;;;;;;21.92;24.28;94204.72;4976141;28;20062;-52
2021/11/22 10:31:18;;;;;;;52.47;40.65;;;;;;;21.66;24.56;94202.13;4976611;28;20054;-55
2021/11/22 10:33:48;;;;;;;48.53;39.28;;;;;;;21.64;25.19;94204.38;4976149;28;20050;-65
2021/11/22 10:36:17;;;;;;;48.33;39.28;;;;;;;21.80;25.15;94212.94;4975525;28;20051;-66
2021/11/22 10:38:51;;;;;;;48.63;38.08;;;;;;;21.80;25.09;94212.94;4975445;28;20483;-65
2021/11/22 10:41:28;;;;;;;45.30;37.70;;;;;;;21.85;24.68;94209.94;4974782;28;20046;-65
2021/11/22 10:44:00;;;;;;;45.13;36.60;;;;;;;21.76;24.72;94202.25;4975442;28;20050;-66
2021/11/22 10:46:36;;;;;;;49.83;38.67;;;;;;;21.64;25.49;94199.03;4976332;28;20050;-66
2021/11/22 10:49:15;;;;;;;47.33;38.28;;;;;;;21.77;25.27;94200.34;4976303;28;20051;-66
2021/11/22 10:51:46;;;;;;;45.60;38.50;;;;;;;22.14;24.83;94195.91;4976146;28;20042;-66
2021/11/22 10:54:16;;;;;;;48.58;39.05;;;;;;;21.90;24.30;94193.69;4976178;28;20049;-67
2021/11/22 10:56:49;;;;;;;45.97;38.92;;;;;;;22.27;24.52;94191.09;4973755;28;20050;-67
2021/11/22 10:59:21;;;;;;;45.05;39.17;;;;;;;22.03;25.02;94200.28;4970933;28;20051;-67
2021/11/22 11:01:52;;;;;;;50.10;40.03;;;;;;;22.17;25.11;94199.75;4956667;28;20051;-67
2021/11/22 11:04:31;;;;;;;56.25;41.50;;;;;;;21.68;24.88;94189.22;4956511;28;20043;-51
2021/11/22 11:06:59;;;;;;;49.75;39.28;;;;;;;21.66;24.81;94180.84;4956630;29;20077;-50
2021/11/22 11:09:36;;;;;;;53.58;41.05;;;;;;;22.15;24.47;94197.44;4956667;29;20105;-51
2021/11/22 11:12:05;;;;;;;49.83;39.20;;;;;;;22.53;24.08;94194.78;4970709;28;20058;-52
2021/11/22 11:14:34;;;;;;;50.65;37.50;;;;;;;22.86;23.52;94192.06;4974683;28;20046;-60
2021/11/22 11:17:20;;;;;;;52.70;39.05;;;;;;;22.78;24.04;94188.56;4975586;28;20042;-53
2021/11/22 11:19:49;;;;;;;47.30;38.80;;;;;;;22.63;23.97;94184.22;4975701;28;20050;-66
2021/11/22 11:22:17;;;;;;;55.70;41.15;;;;;;;22.05;24.71;94170.69;4961198;28;20042;-67
2021/11/22 11:24:44;;;;;;;55.25;43.67;;;;;;;22.47;24.42;94191.69;4975392;28;20057;-66
2021/11/22 11:27:11;;;;;;;54.25;43.72;;;;;;;22.50;24.24;94185.63;4969743;28;20058;-67
2021/11/22 11:29:38;;;;;;;58.15;46.65;;;;;;;22.63;24.20;94196.78;4956574;29;20051;-59
2021/11/22 11:32:06;;;;;;;57.30;47.67;;;;;;;23.14;22.90;94196.09;4966051;28;20065;-66